Pagrindinis puslapis
METAR-TAF:

METAR-TAF

Oro uostai :

Zinderis, Nigeris

platuma: 13-47N, ilguma: 008-59E, Aukštis: 452 m

Dabartinis oras

Ataskaita buvo paskelbta 9 valandos ir 39 minutes, ne 18:00 UTC
Vėjas 4 kt iš Pietryčių, svyruoja nuo Šiaurės Rytų ir Pietų
Temperatūra 39°C
Drėgmė 10%
Slėgis 1006 hPa
Matomumas 10 km arba daugiau
nėra debesų žemiau 1500 m ir nėra kamuolinių lietaus debesų

METAR: DRZR 211800Z 13004KT 040V170 CAVOK 39/02 Q1006

Laikas: 04:39 (03:39 UTC)

Prognozė

Ataskaita buvo paskelbta 4 valandos ir 39 minutes, ne 23:00 UTC
Prognozė galioja nuo 22 metu 00 UTC su 22 metu 24 UTC
Vėjas 5 kt nuo kintamojo kryptimis
Matomumas: 8000 m

TAF: DRZR 212300Z 2200/2224 VRB05KT 8000 NSC

Orai ataskaitas ir orų prognozės (METAR, TAF).

turimą stotys yra geltonos ir raudonos taškus žemėlapyje.

Perkelti pele per norėdami pamatyti stoties vardą.

Tada spustelėkite, norėdami matyti oro stebėjimo ir prognozės.

Norėdami pakeisti žemėlapį: spustelėkite ant žalios mygtukų su juodo kryžiaus žemyn,; žalią mygtuką su brūkšneliu, jei norite nutolinti; arba žalių rodyklių gretimoms žemėlapius.


METAR-TAF: